sensor_id;sensor_type;location;lat;lon;timestamp;pressure;altitude;pressure_sealevel;temperature;humidity
24306;BME280;12423;48.768;8.850;2023-08-06T00:02:20;96231.19;;;23.14;75.23
24306;BME280;12423;48.768;8.850;2023-08-06T00:04:45;96227.56;;;23.20;74.38
24306;BME280;12423;48.768;8.850;2023-08-06T00:07:11;96231.56;;;23.17;74.95
24306;BME280;12423;48.768;8.850;2023-08-06T00:09:36;96240.53;;;23.18;74.11
24306;BME280;12423;48.768;8.850;2023-08-06T00:12:02;96232.53;;;23.23;75.46
24306;BME280;12423;48.768;8.850;2023-08-06T00:14:27;96231.91;;;23.21;75.82
24306;BME280;12423;48.768;8.850;2023-08-06T00:16:52;96228.97;;;23.23;74.76
24306;BME280;12423;48.768;8.850;2023-08-06T00:19:18;96230.50;;;23.18;74.67
24306;BME280;12423;48.768;8.850;2023-08-06T00:21:43;96224.72;;;23.27;74.41
24306;BME280;12423;48.768;8.850;2023-08-06T00:24:08;96220.09;;;23.27;74.81
24306;BME280;12423;48.768;8.850;2023-08-06T00:26:34;96218.81;;;23.30;74.49
24306;BME280;12423;48.768;8.850;2023-08-06T00:28:59;96215.34;;;23.23;75.32
24306;BME280;12423;48.768;8.850;2023-08-06T00:31:25;96221.78;;;23.28;75.66
24306;BME280;12423;48.768;8.850;2023-08-06T00:33:51;96220.22;;;23.32;75.79
24306;BME280;12423;48.768;8.850;2023-08-06T00:36:16;96218.19;;;23.28;75.95
24306;BME280;12423;48.768;8.850;2023-08-06T00:38:41;96207.53;;;23.26;75.86
24306;BME280;12423;48.768;8.850;2023-08-06T00:41:08;96204.66;;;23.21;75.68
24306;BME280;12423;48.768;8.850;2023-08-06T00:43:33;96207.63;;;23.19;75.70
24306;BME280;12423;48.768;8.850;2023-08-06T00:45:59;96205.88;;;23.25;76.05
24306;BME280;12423;48.768;8.850;2023-08-06T00:48:24;96205.88;;;23.25;76.23
24306;BME280;12423;48.768;8.850;2023-08-06T00:50:50;96203.97;;;23.26;75.20
24306;BME280;12423;48.768;8.850;2023-08-06T00:53:16;96198.75;;;23.24;74.96
24306;BME280;12423;48.768;8.850;2023-08-06T00:55:44;96197.59;;;23.20;74.53
24306;BME280;12423;48.768;8.850;2023-08-06T00:58:09;96187.97;;;23.17;74.22
24306;BME280;12423;48.768;8.850;2023-08-06T01:00:35;96180.63;;;23.18;74.50
24306;BME280;12423;48.768;8.850;2023-08-06T01:03:00;96170.22;;;23.15;75.04
24306;BME280;12423;48.768;8.850;2023-08-06T01:05:26;96172.44;;;23.18;74.28
24306;BME280;12423;48.768;8.850;2023-08-06T01:07:56;96168.31;;;23.15;74.26
24306;BME280;12423;48.768;8.850;2023-08-06T01:13:27;96169.59;;;23.13;75.40
24306;BME280;12423;48.768;8.850;2023-08-06T01:15:55;96176.94;;;23.12;74.65
24306;BME280;12423;48.768;8.850;2023-08-06T01:18:23;96165.38;;;23.17;75.64
24306;BME280;12423;48.768;8.850;2023-08-06T01:20:48;96171.41;;;23.19;75.51
24306;BME280;12423;48.768;8.850;2023-08-06T01:23:15;96169.25;;;23.21;75.48
24306;BME280;12423;48.768;8.850;2023-08-06T01:28:29;96172.09;;;23.14;74.31
24306;BME280;12423;48.768;8.850;2023-08-06T01:30:59;96172.78;;;23.10;74.76
24306;BME280;12423;48.768;8.850;2023-08-06T01:33:27;96167.59;;;23.08;74.25
24306;BME280;12423;48.768;8.850;2023-08-06T01:35:53;96163.41;;;23.06;75.19
24306;BME280;12423;48.768;8.850;2023-08-06T01:38:20;96176.81;;;23.07;74.11
24306;BME280;12423;48.768;8.850;2023-08-06T01:40:45;96167.34;;;23.10;74.05
24306;BME280;12423;48.768;8.850;2023-08-06T01:43:10;96170.91;;;23.10;73.74
24306;BME280;12423;48.768;8.850;2023-08-06T01:45:36;96170.06;;;23.10;73.60
24306;BME280;12423;48.768;8.850;2023-08-06T01:48:02;96165.69;;;23.09;73.75
24306;BME280;12423;48.768;8.850;2023-08-06T01:50:27;96155.84;;;23.08;73.18
24306;BME280;12423;48.768;8.850;2023-08-06T01:52:52;96164.63;;;23.10;73.38
24306;BME280;12423;48.768;8.850;2023-08-06T01:55:18;96156.50;;;23.03;72.92
24306;BME280;12423;48.768;8.850;2023-08-06T01:57:43;96149.19;;;23.04;73.32
24306;BME280;12423;48.768;8.850;2023-08-06T02:00:09;96154.06;;;23.02;72.78
24306;BME280;12423;48.768;8.850;2023-08-06T02:02:40;96142.66;;;23.05;73.38
24306;BME280;12423;48.768;8.850;2023-08-06T02:05:06;96125.97;;;23.01;73.14
24306;BME280;12423;48.768;8.850;2023-08-06T02:07:31;96120.28;;;23.03;73.16
24306;BME280;12423;48.768;8.850;2023-08-06T02:09:57;96119.25;;;23.04;73.54
24306;BME280;12423;48.768;8.850;2023-08-06T02:12:22;96118.66;;;23.02;72.60
24306;BME280;12423;48.768;8.850;2023-08-06T02:14:47;96111.31;;;23.02;72.87
24306;BME280;12423;48.768;8.850;2023-08-06T02:17:13;96103.38;;;23.00;73.41
24306;BME280;12423;48.768;8.850;2023-08-06T02:19:39;96105.72;;;22.97;73.12
24306;BME280;12423;48.768;8.850;2023-08-06T02:22:04;96102.16;;;22.96;73.33
24306;BME280;12423;48.768;8.850;2023-08-06T02:24:30;96094.59;;;22.98;73.52
24306;BME280;12423;48.768;8.850;2023-08-06T02:26:55;96094.38;;;23.00;73.16
24306;BME280;12423;48.768;8.850;2023-08-06T02:29:21;96098.16;;;22.99;72.63
24306;BME280;12423;48.768;8.850;2023-08-06T02:31:46;96088.06;;;22.99;72.61
24306;BME280;12423;48.768;8.850;2023-08-06T02:34:12;96094.59;;;22.98;72.96
24306;BME280;12423;48.768;8.850;2023-08-06T02:36:37;96088.31;;;22.98;72.07
24306;BME280;12423;48.768;8.850;2023-08-06T02:39:02;96087.50;;;22.97;72.56
24306;BME280;12423;48.768;8.850;2023-08-06T02:41:29;96080.59;;;22.95;72.32
24306;BME280;12423;48.768;8.850;2023-08-06T02:43:56;96075.53;;;22.98;72.77
24306;BME280;12423;48.768;8.850;2023-08-06T02:46:21;96079.78;;;22.94;72.71
24306;BME280;12423;48.768;8.850;2023-08-06T02:48:48;96077.06;;;22.94;73.04
24306;BME280;12423;48.768;8.850;2023-08-06T02:51:14;96073.16;;;22.90;73.18
24306;BME280;12423;48.768;8.850;2023-08-06T02:53:39;96072.09;;;22.91;73.41
24306;BME280;12423;48.768;8.850;2023-08-06T02:56:08;96073.16;;;22.90;73.23
24306;BME280;12423;48.768;8.850;2023-08-06T02:58:45;96063.91;;;22.91;72.96
24306;BME280;12423;48.768;8.850;2023-08-06T03:01:24;96060.97;;;22.93;72.58
24306;BME280;12423;48.768;8.850;2023-08-06T03:03:56;96058.47;;;22.91;73.39
24306;BME280;12423;48.768;8.850;2023-08-06T03:06:28;96060.13;;;22.92;72.30
24306;BME280;12423;48.768;8.850;2023-08-06T03:08:57;96061.81;;;22.93;72.38
24306;BME280;12423;48.768;8.850;2023-08-06T03:11:22;96063.09;;;22.91;72.16
24306;BME280;12423;48.768;8.850;2023-08-06T03:13:52;96056.81;;;22.90;72.15
24306;BME280;12423;48.768;8.850;2023-08-06T03:16:17;96058.00;;;22.94;73.35
24306;BME280;12423;48.768;8.850;2023-08-06T03:18:43;96054.81;;;22.97;73.03
24306;BME280;12423;48.768;8.850;2023-08-06T03:21:09;96056.72;;;22.97;73.14
24306;BME280;12423;48.768;8.850;2023-08-06T03:23:34;96060.97;;;22.93;72.85
24306;BME280;12423;48.768;8.850;2023-08-06T03:26:04;96054.22;;;22.95;72.79
24306;BME280;12423;48.768;8.850;2023-08-06T03:28:31;96051.28;;;22.97;72.69
24306;BME280;12423;48.768;8.850;2023-08-06T03:31:02;96048.78;;;22.95;73.29
24306;BME280;12423;48.768;8.850;2023-08-06T03:33:32;96063.22;;;22.96;72.19
24306;BME280;12423;48.768;8.850;2023-08-06T03:35:59;96058.47;;;22.91;72.02
24306;BME280;12423;48.768;8.850;2023-08-06T03:38:25;96053.03;;;22.91;72.32
24306;BME280;12423;48.768;8.850;2023-08-06T03:40:52;96053.63;;;22.93;72.37
24306;BME280;12423;48.768;8.850;2023-08-06T03:43:17;96060.38;;;22.91;72.37
24306;BME280;12423;48.768;8.850;2023-08-06T03:45:43;96054.34;;;22.89;72.48
24306;BME280;12423;48.768;8.850;2023-08-06T03:48:09;96048.66;;;22.90;72.43
24306;BME280;12423;48.768;8.850;2023-08-06T03:50:35;96059.31;;;22.92;72.48
24306;BME280;12423;48.768;8.850;2023-08-06T03:53:00;96067.31;;;22.87;72.47
24306;BME280;12423;48.768;8.850;2023-08-06T03:55:27;96066.41;;;22.93;72.90
24306;BME280;12423;48.768;8.850;2023-08-06T03:57:52;96069.34;;;22.91;72.89
24306;BME280;12423;48.768;8.850;2023-08-06T04:00:19;96072.53;;;22.88;72.53
24306;BME280;12423;48.768;8.850;2023-08-06T04:02:50;96074.69;;;22.86;72.64
24306;BME280;12423;48.768;8.850;2023-08-06T04:05:15;96082.38;;;22.89;72.17
24306;BME280;12423;48.768;8.850;2023-08-06T04:07:42;96077.50;;;22.79;72.30
24306;BME280;12423;48.768;8.850;2023-08-06T04:10:07;96079.19;;;22.80;72.18
24306;BME280;12423;48.768;8.850;2023-08-06T04:12:33;96085.78;;;22.85;72.68
24306;BME280;12423;48.768;8.850;2023-08-06T04:15:02;96083.06;;;22.85;72.45
24306;BME280;12423;48.768;8.850;2023-08-06T04:17:28;96075.00;;;22.78;71.88
24306;BME280;12423;48.768;8.850;2023-08-06T04:19:54;96076.78;;;22.72;71.95
24306;BME280;12423;48.768;8.850;2023-08-06T04:22:20;96070.88;;;22.75;72.16
24306;BME280;12423;48.768;8.850;2023-08-06T04:24:46;96081.28;;;22.78;71.70
24306;BME280;12423;48.768;8.850;2023-08-06T04:27:13;96078.72;;;22.84;72.13
24306;BME280;12423;48.768;8.850;2023-08-06T04:29:39;96082.25;;;22.84;72.08
24306;BME280;12423;48.768;8.850;2023-08-06T04:32:08;96082.84;;;22.86;71.97
24306;BME280;12423;48.768;8.850;2023-08-06T04:34:35;96078.47;;;22.85;71.97
24306;BME280;12423;48.768;8.850;2023-08-06T04:37:01;96087.13;;;22.82;71.91
24306;BME280;12423;48.768;8.850;2023-08-06T04:39:27;96086.66;;;22.85;71.99
24306;BME280;12423;48.768;8.850;2023-08-06T04:41:52;96080.13;;;22.86;72.13
24306;BME280;12423;48.768;8.850;2023-08-06T04:44:18;96083.44;;;22.88;71.68
24306;BME280;12423;48.768;8.850;2023-08-06T04:46:44;96080.72;;;22.88;71.95
24306;BME280;12423;48.768;8.850;2023-08-06T04:49:09;96082.38;;;22.89;71.72
24306;BME280;12423;48.768;8.850;2023-08-06T04:51:35;96078.00;;;22.88;72.24
24306;BME280;12423;48.768;8.850;2023-08-06T04:54:00;96077.63;;;22.85;71.71
24306;BME280;12423;48.768;8.850;2023-08-06T04:56:26;96082.63;;;22.88;71.82
24306;BME280;12423;48.768;8.850;2023-08-06T04:58:51;96079.88;;;22.88;72.14
24306;BME280;12423;48.768;8.850;2023-08-06T05:01:17;96083.78;;;22.80;71.88
24306;BME280;12423;48.768;8.850;2023-08-06T05:03:42;96082.50;;;22.82;72.40
24306;BME280;12423;48.768;8.850;2023-08-06T05:06:08;96077.41;;;22.86;71.92
24306;BME280;12423;48.768;8.850;2023-08-06T05:08:33;96067.94;;;22.89;72.28
24306;BME280;12423;48.768;8.850;2023-08-06T05:10:58;96080.25;;;22.91;72.21
24306;BME280;12423;48.768;8.850;2023-08-06T05:13:24;96076.72;;;22.91;72.56
24306;BME280;12423;48.768;8.850;2023-08-06T05:15:50;96080.47;;;22.90;72.43
24306;BME280;12423;48.768;8.850;2023-08-06T05:18:15;96067.94;;;22.89;72.24
24306;BME280;12423;48.768;8.850;2023-08-06T05:20:42;96075.25;;;22.88;73.30
24306;BME280;12423;48.768;8.850;2023-08-06T05:23:08;96071.50;;;22.89;72.83
24306;BME280;12423;48.768;8.850;2023-08-06T05:25:37;96078.59;;;22.90;73.30
24306;BME280;12423;48.768;8.850;2023-08-06T05:28:03;96076.13;;;22.89;72.56
24306;BME280;12423;48.768;8.850;2023-08-06T05:30:28;96081.34;;;22.90;72.84
24306;BME280;12423;48.768;8.850;2023-08-06T05:32:54;96089.84;;;22.82;72.06
24306;BME280;12423;48.768;8.850;2023-08-06T05:35:20;96091.59;;;22.88;72.55
24306;BME280;12423;48.768;8.850;2023-08-06T05:37:46;96094.19;;;22.83;72.57
24306;BME280;12423;48.768;8.850;2023-08-06T05:40:11;96094.19;;;22.83;72.81
24306;BME280;12423;48.768;8.850;2023-08-06T05:42:37;96096.22;;;22.88;72.73
24306;BME280;12423;48.768;8.850;2023-08-06T05:45:02;96093.72;;;22.86;72.85
24306;BME280;12423;48.768;8.850;2023-08-06T05:47:28;96097.03;;;22.88;72.74
24306;BME280;12423;48.768;8.850;2023-08-06T05:49:53;96105.84;;;22.90;72.45
24306;BME280;12423;48.768;8.850;2023-08-06T05:52:18;96101.22;;;22.91;72.48
24306;BME280;12423;48.768;8.850;2023-08-06T05:54:44;96095.41;;;22.87;72.40
24306;BME280;12423;48.768;8.850;2023-08-06T05:57:09;96099.75;;;22.88;72.41
24306;BME280;12423;48.768;8.850;2023-08-06T05:59:34;96097.66;;;22.90;72.61
24306;BME280;12423;48.768;8.850;2023-08-06T06:02:00;96093.63;;;22.93;72.91
24306;BME280;12423;48.768;8.850;2023-08-06T06:04:25;96094.09;;;22.90;72.72
24306;BME280;12423;48.768;8.850;2023-08-06T06:06:50;96095.75;;;22.91;72.80
24306;BME280;12423;48.768;8.850;2023-08-06T06:09:16;96102.03;;;22.91;72.86
24306;BME280;12423;48.768;8.850;2023-08-06T06:11:41;96097.44;;;22.92;72.73
24306;BME280;12423;48.768;8.850;2023-08-06T06:14:06;96103.69;;;22.92;72.54
24306;BME280;12423;48.768;8.850;2023-08-06T06:16:32;96098.72;;;22.89;73.05
24306;BME280;12423;48.768;8.850;2023-08-06T06:18:57;96104.97;;;22.90;73.06
24306;BME280;12423;48.768;8.850;2023-08-06T06:21:23;96096.59;;;22.91;72.82
24306;BME280;12423;48.768;8.850;2023-08-06T06:23:49;96104.16;;;22.89;73.21
24306;BME280;12423;48.768;8.850;2023-08-06T06:26:19;96112.56;;;22.88;72.55
24306;BME280;12423;48.768;8.850;2023-08-06T06:28:45;96123.22;;;22.89;72.84
24306;BME280;12423;48.768;8.850;2023-08-06T06:31:10;96115.06;;;22.89;72.83
24306;BME280;12423;48.768;8.850;2023-08-06T06:33:36;96125.94;;;22.89;73.03
24306;BME280;12423;48.768;8.850;2023-08-06T06:36:01;96137.66;;;22.90;73.14
24306;BME280;12423;48.768;8.850;2023-08-06T06:38:29;96142.06;;;22.91;72.83
24306;BME280;12423;48.768;8.850;2023-08-06T06:40:55;96134.47;;;22.93;72.69
24306;BME280;12423;48.768;8.850;2023-08-06T06:43:21;96130.94;;;22.92;72.76
24306;BME280;12423;48.768;8.850;2023-08-06T06:45:46;96144.78;;;22.91;72.56
24306;BME280;12423;48.768;8.850;2023-08-06T06:48:11;96138.50;;;22.90;73.00
24306;BME280;12423;48.768;8.850;2023-08-06T06:50:37;96140.16;;;22.91;72.82
24306;BME280;12423;48.768;8.850;2023-08-06T06:53:04;96137.41;;;22.91;72.99
24306;BME280;12423;48.768;8.850;2023-08-06T06:55:29;96130.09;;;22.92;73.04
24306;BME280;12423;48.768;8.850;2023-08-06T06:57:55;96133.41;;;22.94;72.97
24306;BME280;12423;48.768;8.850;2023-08-06T07:00:20;96134.13;;;22.89;72.52
24306;BME280;12423;48.768;8.850;2023-08-06T07:02:45;96129.72;;;22.88;72.65
24306;BME280;12423;48.768;8.850;2023-08-06T07:05:11;96131.84;;;22.86;73.04
24306;BME280;12423;48.768;8.850;2023-08-06T07:07:36;96131.38;;;22.89;72.54
24306;BME280;12423;48.768;8.850;2023-08-06T07:10:02;96139.31;;;22.91;72.57
24306;BME280;12423;48.768;8.850;2023-08-06T07:12:28;96131.97;;;22.91;72.83
24306;BME280;12423;48.768;8.850;2023-08-06T07:14:53;96135.66;;;22.85;72.48
24306;BME280;12423;48.768;8.850;2023-08-06T07:17:19;96130.66;;;22.82;72.79
24306;BME280;12423;48.768;8.850;2023-08-06T07:19:44;96140.47;;;22.83;73.05
24306;BME280;12423;48.768;8.850;2023-08-06T07:22:09;96137.28;;;22.86;73.07
24306;BME280;12423;48.768;8.850;2023-08-06T07:24:35;96136.47;;;22.86;73.37
24306;BME280;12423;48.768;8.850;2023-08-06T07:27:00;96147.72;;;22.89;73.37
24306;BME280;12423;48.768;8.850;2023-08-06T07:29:26;96148.63;;;22.83;73.24
24306;BME280;12423;48.768;8.850;2023-08-06T07:31:51;96148.38;;;22.73;72.54
24306;BME280;12423;48.768;8.850;2023-08-06T07:34:17;96150.69;;;22.57;72.72
24306;BME280;12423;48.768;8.850;2023-08-06T07:36:45;96142.38;;;22.52;73.01
24306;BME280;12423;48.768;8.850;2023-08-06T07:39:11;96146.16;;;22.51;73.24
24306;BME280;12423;48.768;8.850;2023-08-06T07:43:36;96143.97;;;22.72;78.25
24306;BME280;12423;48.768;8.850;2023-08-06T07:46:01;96147.97;;;22.20;81.11
24306;BME280;12423;48.768;8.850;2023-08-06T07:50:38;96150.88;;;19.37;100.00
24306;BME280;12423;48.768;8.850;2023-08-06T07:53:03;96151.16;;;17.92;100.00
24306;BME280;12423;48.768;8.850;2023-08-06T07:55:28;96134.31;;;16.84;100.00
24306;BME280;12423;48.768;8.850;2023-08-06T07:57:54;96138.91;;;16.25;100.00
24306;BME280;12423;48.768;8.850;2023-08-06T08:00:19;96137.84;;;15.45;100.00
24306;BME280;12423;48.768;8.850;2023-08-06T08:02:45;96144.94;;;15.08;100.00
24306;BME280;12423;48.768;8.850;2023-08-06T08:05:11;96147.69;;;15.00;100.00
24306;BME280;12423;48.768;8.850;2023-08-06T08:07:36;96144.34;;;14.74;100.00
24306;BME280;12423;48.768;8.850;2023-08-06T08:10:02;96143.94;;;14.86;100.00
24306;BME280;12423;48.768;8.850;2023-08-06T08:12:30;96151.19;;;14.85;100.00
24306;BME280;12423;48.768;8.850;2023-08-06T08:14:55;96151.34;;;14.84;100.00
24306;BME280;12423;48.768;8.850;2023-08-06T08:17:21;96153.09;;;15.00;100.00
24306;BME280;12423;48.768;8.850;2023-08-06T08:19:46;96150.88;;;15.18;100.00
24306;BME280;12423;48.768;8.850;2023-08-06T08:22:11;96146.94;;;15.06;100.00
24306;BME280;12423;48.768;8.850;2023-08-06T08:24:37;96141.03;;;15.10;100.00
24306;BME280;12423;48.768;8.850;2023-08-06T08:27:02;96146.63;;;15.24;100.00
24306;BME280;12423;48.768;8.850;2023-08-06T08:29:28;96142.06;;;15.24;100.00
24306;BME280;12423;48.768;8.850;2023-08-06T08:36:01;96146.09;;;15.43;100.00
24306;BME280;12423;48.768;8.850;2023-08-06T08:38:26;96140.50;;;15.30;100.00
24306;BME280;12423;48.768;8.850;2023-08-06T08:42:12;96146.44;;;14.87;100.00
24306;BME280;12423;48.768;8.850;2023-08-06T08:44:39;96148.16;;;15.03;100.00
24306;BME280;12423;48.768;8.850;2023-08-06T08:47:06;96145.16;;;15.21;100.00
24306;BME280;12423;48.768;8.850;2023-08-06T08:49:32;96142.94;;;15.25;100.00
24306;BME280;12423;48.768;8.850;2023-08-06T08:54:16;96136.63;;;16.07;100.00
24306;BME280;12423;48.768;8.850;2023-08-06T08:56:42;96147.69;;;15.68;100.00
24306;BME280;12423;48.768;8.850;2023-08-06T08:59:09;96142.13;;;15.54;100.00
24306;BME280;12423;48.768;8.850;2023-08-06T09:01:35;96153.72;;;15.55;100.00
24306;BME280;12423;48.768;8.850;2023-08-06T09:04:01;96150.22;;;15.16;100.00
24306;BME280;12423;48.768;8.850;2023-08-06T09:06:27;96152.75;;;15.47;100.00
24306;BME280;12423;48.768;8.850;2023-08-06T09:09:01;96159.94;;;15.02;100.00
24306;BME280;12423;48.768;8.850;2023-08-06T09:11:29;96155.16;;;14.89;100.00
24306;BME280;12423;48.768;8.850;2023-08-06T09:14:03;96166.88;;;14.97;100.00
24306;BME280;12423;48.768;8.850;2023-08-06T09:16:29;96151.69;;;15.04;100.00
24306;BME280;12423;48.768;8.850;2023-08-06T09:19:06;96162.88;;;14.92;100.00
24306;BME280;12423;48.768;8.850;2023-08-06T09:21:31;96170.69;;;15.02;100.00
24306;BME280;12423;48.768;8.850;2023-08-06T09:23:58;96167.56;;;15.14;100.00
24306;BME280;12423;48.768;8.850;2023-08-06T09:26:24;96170.00;;;15.23;100.00
24306;BME280;12423;48.768;8.850;2023-08-06T09:28:52;96168.09;;;15.09;100.00
24306;BME280;12423;48.768;8.850;2023-08-06T09:31:17;96166.25;;;15.09;100.00
24306;BME280;12423;48.768;8.850;2023-08-06T09:33:43;96173.50;;;15.09;100.00
24306;BME280;12423;48.768;8.850;2023-08-06T09:36:10;96175.00;;;14.88;100.00
24306;BME280;12423;48.768;8.850;2023-08-06T09:38:40;96175.38;;;14.85;100.00
24306;BME280;12423;48.768;8.850;2023-08-06T09:41:06;96162.00;;;14.77;100.00
24306;BME280;12423;48.768;8.850;2023-08-06T09:43:42;96170.81;;;14.63;100.00
24306;BME280;12423;48.768;8.850;2023-08-06T09:46:12;96175.66;;;14.67;100.00
24306;BME280;12423;48.768;8.850;2023-08-06T09:48:38;96181.56;;;14.63;100.00
24306;BME280;12423;48.768;8.850;2023-08-06T09:51:05;96184.63;;;14.51;100.00
24306;BME280;12423;48.768;8.850;2023-08-06T09:53:34;96192.03;;;14.49;100.00
24306;BME280;12423;48.768;8.850;2023-08-06T09:56:00;96193.34;;;14.53;100.00
24306;BME280;12423;48.768;8.850;2023-08-06T09:58:26;96193.69;;;14.59;100.00
24306;BME280;12423;48.768;8.850;2023-08-06T10:00:52;96196.13;;;14.45;100.00
24306;BME280;12423;48.768;8.850;2023-08-06T10:03:18;96200.38;;;14.31;100.00
24306;BME280;12423;48.768;8.850;2023-08-06T10:05:44;96210.69;;;14.51;100.00
24306;BME280;12423;48.768;8.850;2023-08-06T10:08:09;96210.31;;;14.54;100.00
24306;BME280;12423;48.768;8.850;2023-08-06T10:10:35;96200.22;;;14.87;100.00
24306;BME280;12423;48.768;8.850;2023-08-06T10:13:02;96197.19;;;14.90;100.00
24306;BME280;12423;48.768;8.850;2023-08-06T10:15:30;96204.47;;;14.82;100.00
24306;BME280;12423;48.768;8.850;2023-08-06T10:17:57;96207.03;;;14.75;100.00
24306;BME280;12423;48.768;8.850;2023-08-06T10:20:24;96207.44;;;14.64;100.00
24306;BME280;12423;48.768;8.850;2023-08-06T10:23:15;96216.03;;;14.59;100.00
24306;BME280;12423;48.768;8.850;2023-08-06T10:25:42;96202.91;;;14.56;100.00
24306;BME280;12423;48.768;8.850;2023-08-06T10:28:11;96211.81;;;14.56;100.00
24306;BME280;12423;48.768;8.850;2023-08-06T10:30:45;96219.56;;;14.51;100.00
24306;BME280;12423;48.768;8.850;2023-08-06T10:33:10;96223.34;;;14.42;100.00
24306;BME280;12423;48.768;8.850;2023-08-06T10:35:49;96215.28;;;14.42;100.00
24306;BME280;12423;48.768;8.850;2023-08-06T10:38:22;96231.38;;;14.42;100.00
24306;BME280;12423;48.768;8.850;2023-08-06T10:43:27;96236.44;;;14.77;100.00
24306;BME280;12423;48.768;8.850;2023-08-06T10:45:53;96243.63;;;14.45;100.00
24306;BME280;12423;48.768;8.850;2023-08-06T10:48:39;96236.59;;;14.44;100.00
24306;BME280;12423;48.768;8.850;2023-08-06T10:51:12;96234.69;;;14.52;100.00
24306;BME280;12423;48.768;8.850;2023-08-06T10:53:42;96253.44;;;14.69;100.00
24306;BME280;12423;48.768;8.850;2023-08-06T10:56:17;96254.09;;;14.71;100.00
24306;BME280;12423;48.768;8.850;2023-08-06T10:58:44;96252.19;;;14.80;100.00
24306;BME280;12423;48.768;8.850;2023-08-06T11:01:10;96269.53;;;14.77;100.00
24306;BME280;12423;48.768;8.850;2023-08-06T11:03:36;96276.94;;;14.75;100.00
24306;BME280;12423;48.768;8.850;2023-08-06T11:06:02;96270.53;;;14.36;100.00
24306;BME280;12423;48.768;8.850;2023-08-06T11:08:32;96271.19;;;14.38;100.00
24306;BME280;12423;48.768;8.850;2023-08-06T11:11:19;96275.38;;;14.41;100.00
24306;BME280;12423;48.768;8.850;2023-08-06T11:13:49;96268.34;;;14.32;100.00
24306;BME280;12423;48.768;8.850;2023-08-06T11:16:16;96265.03;;;14.22;100.00
24306;BME280;12423;48.768;8.850;2023-08-06T11:18:42;96285.53;;;14.23;100.00
24306;BME280;12423;48.768;8.850;2023-08-06T11:21:08;96271.97;;;14.16;100.00
24306;BME280;12423;48.768;8.850;2023-08-06T11:23:34;96270.94;;;14.17;100.00
24306;BME280;12423;48.768;8.850;2023-08-06T11:25:59;96285.84;;;14.28;100.00
24306;BME280;12423;48.768;8.850;2023-08-06T11:28:25;96269.38;;;14.31;100.00
24306;BME280;12423;48.768;8.850;2023-08-06T11:30:51;96286.34;;;14.31;100.00
24306;BME280;12423;48.768;8.850;2023-08-06T11:33:23;96285.34;;;14.32;100.00
24306;BME280;12423;48.768;8.850;2023-08-06T11:35:51;96305.69;;;14.18;100.00
24306;BME280;12423;48.768;8.850;2023-08-06T11:38:16;96283.06;;;14.05;100.00
24306;BME280;12423;48.768;8.850;2023-08-06T11:40:50;96309.44;;;13.93;100.00
24306;BME280;12423;48.768;8.850;2023-08-06T11:43:15;96296.88;;;13.85;100.00
24306;BME280;12423;48.768;8.850;2023-08-06T11:45:41;96307.94;;;13.82;100.00
24306;BME280;12423;48.768;8.850;2023-08-06T11:48:07;96304.09;;;13.85;100.00
24306;BME280;12423;48.768;8.850;2023-08-06T11:50:36;96323.22;;;13.81;100.00
24306;BME280;12423;48.768;8.850;2023-08-06T11:53:02;96304.59;;;13.88;100.00
24306;BME280;12423;48.768;8.850;2023-08-06T11:55:28;96299.72;;;13.83;100.00
24306;BME280;12423;48.768;8.850;2023-08-06T11:57:54;96321.53;;;13.80;100.00
24306;BME280;12423;48.768;8.850;2023-08-06T12:00:23;96328.41;;;13.91;100.00
24306;BME280;12423;48.768;8.850;2023-08-06T12:02:49;96327.59;;;13.74;100.00
24306;BME280;12423;48.768;8.850;2023-08-06T12:05:18;96333.97;;;13.65;100.00
24306;BME280;12423;48.768;8.850;2023-08-06T12:07:52;96321.56;;;13.56;100.00
24306;BME280;12423;48.768;8.850;2023-08-06T12:10:19;96343.03;;;13.48;100.00
24306;BME280;12423;48.768;8.850;2023-08-06T12:12:46;96328.44;;;13.58;100.00
24306;BME280;12423;48.768;8.850;2023-08-06T12:15:11;96324.94;;;13.66;100.00
24306;BME280;12423;48.768;8.850;2023-08-06T12:17:37;96327.25;;;13.77;100.00
24306;BME280;12423;48.768;8.850;2023-08-06T12:22:30;96338.94;;;14.09;100.00
24306;BME280;12423;48.768;8.850;2023-08-06T12:25:46;96337.81;;;14.51;100.00
24306;BME280;12423;48.768;8.850;2023-08-06T12:28:12;96336.53;;;14.39;100.00
24306;BME280;12423;48.768;8.850;2023-08-06T12:31:49;96349.84;;;14.72;100.00
24306;BME280;12423;48.768;8.850;2023-08-06T12:34:15;96336.41;;;14.72;100.00
24306;BME280;12423;48.768;8.850;2023-08-06T12:36:40;96358.13;;;15.02;100.00
24306;BME280;12423;48.768;8.850;2023-08-06T12:39:05;96348.31;;;15.09;100.00
24306;BME280;12423;48.768;8.850;2023-08-06T12:41:32;96358.03;;;14.87;100.00
24306;BME280;12423;48.768;8.850;2023-08-06T12:46:08;96362.81;;;14.68;100.00
24306;BME280;12423;48.768;8.850;2023-08-06T12:48:33;96357.75;;;14.73;100.00
24306;BME280;12423;48.768;8.850;2023-08-06T12:50:58;96358.25;;;15.08;100.00
24306;BME280;12423;48.768;8.850;2023-08-06T12:55:35;96357.28;;;15.47;100.00
24306;BME280;12423;48.768;8.850;2023-08-06T12:58:01;96331.81;;;15.81;100.00
24306;BME280;12423;48.768;8.850;2023-08-06T13:00:28;96341.69;;;15.89;100.00
24306;BME280;12423;48.768;8.850;2023-08-06T13:02:55;96377.06;;;15.86;100.00
24306;BME280;12423;48.768;8.850;2023-08-06T13:05:21;96352.78;;;16.09;100.00
24306;BME280;12423;48.768;8.850;2023-08-06T13:07:48;96347.22;;;16.40;100.00
24306;BME280;12423;48.768;8.850;2023-08-06T13:10:15;96355.28;;;17.00;100.00
24306;BME280;12423;48.768;8.850;2023-08-06T13:12:42;96359.13;;;16.91;100.00
24306;BME280;12423;48.768;8.850;2023-08-06T13:15:09;96340.16;;;16.39;100.00
24306;BME280;12423;48.768;8.850;2023-08-06T13:17:36;96372.69;;;16.53;100.00
24306;BME280;12423;48.768;8.850;2023-08-06T13:20:03;96383.38;;;16.31;100.00
24306;BME280;12423;48.768;8.850;2023-08-06T13:22:30;96386.28;;;16.07;100.00